Rancho Santa Fe, CA (92067)

4:11 PM PDT on July 27, 2016 (GMT -0700)
El Sicomoro | | Change Station

Elev 167 ft 33.02 °N, 117.20 °W | Updated 9 minutes ago

Clear
Clear
84.4 °F
Feels Like 87 °F
N
2.5
Wind Variable Wind from SW
Gusts 6.8 mph

Today
High -- | Low -- °F
--% Chance of Precip.
Yesterday
High -- | Low -- °F
Precip. -- in
Pressure 29.88 in
Visibility 10.0 miles
Clouds Clear
Heat Index 87 °F
Dew Point 68 °F
Humidity 57%
Rainfall 0.00 in
Snow Depth Not available.
5:59 AM 7:51 PM
Last Quarter, 38% visible
METAR KCRQ 272253Z AUTO 24008KT 10SM CLR 26/19 A2989 RMK AO2 SLP119 T02560194
Pressure 29.88 in
Visibility 10.0 miles
Clouds Clear
Heat Index 87 °F
Dew Point 68 °F
Humidity 57%
Rainfall 0.00 in
Snow Depth Not available.
5:59 AM 7:51 PM
Last Quarter, 38% visible
METAR KCRQ 272253Z AUTO 24008KT 10SM CLR 26/19 A2989 RMK AO2 SLP119 T02560194

10-Day Weather Forecast

Almanac

Astronomy

Jul. 27, 2016 Rise Set
Actual Time
Civil Twilight
Nautical Twilight
Astronomical Twilight
Moon
Length of Visible Light
Length of Day
Tomorrow will be .
, % of the Moon is Illuminated

Today's Extremes

State Highs State Lows

Community

WunderPhotos

Upload Photos

1,927,954 photos uploaded!

WunderBlog® & News

Nearby

Air Quality

  Air Quality AQ Index Pollutant
Not available.

Snow Depth

Station Depth Elevation

Earthquake Activity

City Distance Mag. Time & Date
Minimum magnitude displayed is 2.5.

Coastal Water Temperatures

Place Temperature

Stations

Nearby Weather Stations

Station Location Temp. Windchill Dew Point Humidity Wind Precip. Elev Updated Type
                   

Watches & Warnings

There are currently no watches in effect.